Heer, Netherlands
Current Conditions -  °F | °C
As of 1:25 PM on Thursday 29 Jan 2015 (Local Time) from EHBK Reporting Station
Overcast Overcast  
Wind Chill: 29°   Ceiling: 2300
Heat Index: 39°   Visibility: 6mi
Dew Point: 34°   Wind: 22mph
Humidity: 81%   Direction: 220°SW
Pressure: 29.12"   Gusts: NA
Location:  50.84°N, 5.73°E
Report Text: EHBK 291225Z AUTO 22019KT 190V260 9999 FEW015CB SCT019 BKN023OVC026 04/01 Q0986 NOSIG
Loading
Personal Weather Stations






























Interactive Weather Map New forecast layout! Learn more

10-Day Weather Forecast

Advertisements
Track Severe Weather on mobile